Time;durP1;ratioP1;P1;durP2;ratioP2;P2;SDS_P1;SDS_P2;PMS_P1;PMS_P2;Temp;Humidity;BMP_temperature;BMP_pressure;BME280_temperature;BME280_humidity;BME280_pressure;Samples;Min_cycle;Max_cycle;Signal;HPM_P1;HPM_P2
2022/04/14 00:00:06;;;;;;;;;16.25;15.50;;;;;17.16;100.00;101738.91;5057677;28;45945;-77
2022/04/14 00:02:32;;;;;;;;;14.25;14.25;;;;;17.14;100.00;101734.44;5058037;28;45332;-79
2022/04/14 00:04:57;;;;;;;;;14.50;11.75;;;;;17.11;100.00;101732.63;5058293;28;45296;-80
2022/04/14 00:07:23;;;;;;;;;15.25;14.75;;;;;17.10;100.00;101733.44;5057800;28;45571;-78
2022/04/14 00:09:48;;;;;;;;;13.50;11.50;;;;;17.06;100.00;101728.94;5057646;28;45884;-80
2022/04/14 00:12:14;;;;;;;;;15.00;14.25;;;;;17.08;100.00;101736.88;5057536;28;45316;-79
2022/04/14 00:14:40;;;;;;;;;16.75;15.75;;;;;17.08;100.00;101749.94;5039888;28;45459;-80
2022/04/14 00:17:05;;;;;;;;;13.75;13.50;;;;;17.04;100.00;101737.59;5057929;28;45258;-78
2022/04/14 00:19:31;;;;;;;;;16.50;14.50;;;;;17.02;100.00;101743.66;5057426;28;45244;-79
2022/04/14 00:21:57;;;;;;;;;15.50;14.00;;;;;16.95;100.00;101744.31;5057952;28;45285;-78
2022/04/14 00:24:22;;;;;;;;;17.50;16.25;;;;;16.91;100.00;101742.38;5057486;28;45324;-78
2022/04/14 00:26:48;;;;;;;;;21.25;19.50;;;;;16.88;100.00;101739.69;5058185;28;45471;-81
2022/04/14 00:29:14;;;;;;;;;21.00;18.00;;;;;16.88;100.00;101734.44;5058105;28;45332;-79
2022/04/14 00:31:39;;;;;;;;;20.25;16.50;;;;;16.89;100.00;101748.41;5057454;28;45319;-81
2022/04/14 00:34:05;;;;;;;;;19.50;16.50;;;;;16.80;100.00;101744.66;5039535;28;45477;-81
2022/04/14 00:36:33;;;;;;;;;18.75;17.75;;;;;16.74;100.00;101740.94;5057722;28;45506;-78
2022/04/14 00:38:59;;;;;;;;;19.75;15.50;;;;;16.79;100.00;101749.84;5057561;28;46007;-79
2022/04/14 00:41:27;;;;;;;;;21.00;20.00;;;;;16.74;100.00;101739.19;5057172;28;45846;-81
2022/04/14 00:43:54;;;;;;;;;16.75;16.25;;;;;16.78;100.00;101741.09;5057629;28;45403;-80
2022/04/14 00:46:20;;;;;;;;;16.50;15.50;;;;;16.74;100.00;101736.56;5057804;28;45366;-80
2022/04/14 00:48:48;;;;;;;;;18.00;14.75;;;;;16.73;100.00;101734.81;5057032;28;45950;-79
2022/04/14 00:51:13;;;;;;;;;18.50;15.50;;;;;16.69;100.00;101725.97;5056812;28;45268;-80
2022/04/14 00:53:40;;;;;;;;;17.75;16.25;;;;;16.73;100.00;101740.06;5039038;28;45325;-81
2022/04/14 00:56:06;;;;;;;;;16.25;14.00;;;;;16.66;100.00;101738.03;5057019;28;45353;-81
2022/04/14 00:58:33;;;;;;;;;16.75;14.00;;;;;16.59;100.00;101736.94;5056044;28;45544;-79
2022/04/14 01:01:00;;;;;;;;;20.50;15.00;;;;;16.59;100.00;101749.13;5057234;28;45983;-81
2022/04/14 01:03:26;;;;;;;;;18.50;18.00;;;;;16.56;100.00;101742.09;5057299;28;45450;-81
2022/04/14 01:05:53;;;;;;;;;16.75;16.75;;;;;16.54;100.00;101735.91;5057084;28;45351;-80
2022/04/14 01:08:19;;;;;;;;;15.00;15.00;;;;;16.53;100.00;101737.59;5056497;28;45351;-80
2022/04/14 01:10:47;;;;;;;;;20.75;16.50;;;;;16.51;100.00;101727.94;5056710;28;45861;-79
2022/04/14 01:13:17;;;;;;;;;19.25;16.00;;;;;16.54;100.00;101747.22;5056627;28;45467;-80
2022/04/14 01:15:44;;;;;;;;;17.50;15.00;;;;;16.61;100.00;101744.84;5057114;28;45308;-80
2022/04/14 01:18:10;;;;;;;;;14.75;14.00;;;;;16.59;100.00;101750.00;5038963;28;46498;-78
2022/04/14 01:20:36;;;;;;;;;17.00;16.50;;;;;16.62;100.00;101750.13;5057027;28;45455;-80
2022/04/14 01:23:04;;;;;;;;;16.00;15.00;;;;;16.62;100.00;101751.88;5056553;28;45816;-80
2022/04/14 01:25:30;;;;;;;;;13.50;12.50;;;;;16.55;100.00;101737.69;5057193;28;45410;-80
2022/04/14 01:27:56;;;;;;;;;14.00;14.00;;;;;16.59;100.00;101741.28;5038590;28;47546;-78
2022/04/14 01:30:22;;;;;;;;;10.50;10.00;;;;;16.52;100.00;101740.19;5056345;28;45347;-80
2022/04/14 01:32:48;;;;;;;;;14.25;14.00;;;;;16.47;100.00;101739.13;5038487;28;45454;-79
2022/04/14 01:35:14;;;;;;;;;17.50;14.50;;;;;16.50;100.00;101747.97;5056706;28;45291;-80
2022/04/14 01:37:40;;;;;;;;;17.50;16.50;;;;;16.44;100.00;101742.50;5056414;28;45639;-81
2022/04/14 01:40:06;;;;;;;;;14.25;12.00;;;;;16.46;100.00;101751.31;5056320;28;45909;-79
2022/04/14 01:42:32;;;;;;;;;16.00;13.75;;;;;16.46;100.00;101753.03;5038361;28;45280;-76
2022/04/14 01:44:57;;;;;;;;;12.50;12.50;;;;;16.46;100.00;101745.22;5056891;28;45339;-78
2022/04/14 01:47:23;;;;;;;;;13.25;12.75;;;;;16.38;100.00;101737.09;5055731;28;46217;-79
2022/04/14 01:49:48;;;;;;;;;12.00;10.50;;;;;16.42;100.00;101743.31;5056193;28;45326;-79
2022/04/14 01:52:14;;;;;;;;;14.50;13.50;;;;;16.42;100.00;101748.53;5037824;28;45360;-80
2022/04/14 01:54:40;;;;;;;;;13.00;13.00;;;;;16.40;100.00;101733.69;5056429;28;45515;-80
2022/04/14 01:57:05;;;;;;;;;14.75;13.00;;;;;16.39;100.00;101742.34;5037518;28;46717;-79
2022/04/14 01:59:31;;;;;;;;;14.25;13.00;;;;;16.38;100.00;101735.34;5056030;28;45398;-78
2022/04/14 02:01:56;;;;;;;;;13.75;11.25;;;;;16.35;100.00;101736.97;5056405;28;45359;-77
2022/04/14 02:04:22;;;;;;;;;13.50;12.50;;;;;16.34;100.00;101733.47;5056111;28;45380;-79
2022/04/14 02:06:47;;;;;;;;;15.50;13.25;;;;;16.29;100.00;101723.69;5055808;28;46020;-79
2022/04/14 02:09:13;;;;;;;;;12.50;9.50;;;;;16.34;100.00;101749.16;5055568;28;45329;-79
2022/04/14 02:11:39;;;;;;;;;13.00;12.75;;;;;16.35;100.00;101750.94;5056110;28;45292;-79
2022/04/14 02:14:05;;;;;;;;;11.75;11.00;;;;;16.33;100.00;101752.59;5037847;28;45540;-79
2022/04/14 02:16:30;;;;;;;;;15.75;12.75;;;;;16.30;100.00;101746.38;5055895;28;45988;-77
2022/04/14 02:18:56;;;;;;;;;13.75;13.75;;;;;16.29;100.00;101744.59;5056009;28;45255;-78
2022/04/14 02:21:21;;;;;;;;;15.25;12.25;;;;;16.29;100.00;101748.09;5055896;28;45366;-80
2022/04/14 02:23:47;;;;;;;;;16.50;14.50;;;;;16.25;100.00;101748.81;5056147;28;45507;-79
2022/04/14 02:26:13;;;;;;;;;12.50;12.50;;;;;16.22;100.00;101744.34;5055246;28;45433;-79
2022/04/14 02:28:39;;;;;;;;;18.25;13.25;;;;;16.22;100.00;101746.97;5055673;28;45471;-80
2022/04/14 02:31:04;;;;;;;;;15.00;12.00;;;;;16.22;100.00;101746.97;5055624;28;45426;-78
2022/04/14 02:33:30;;;;;;;;;8.25;8.25;;;;;16.12;100.00;101736.13;5056447;28;45364;-79
2022/04/14 02:35:55;;;;;;;;;12.50;11.25;;;;;16.15;100.00;101747.59;5056066;28;46421;-79
2022/04/14 02:38:21;;;;;;;;;13.00;13.00;;;;;16.13;100.00;101743.16;5055569;28;45422;-80
2022/04/14 02:40:46;;;;;;;;;11.50;11.50;;;;;16.09;100.00;101740.41;5055704;28;45334;-79
2022/04/14 02:43:12;;;;;;;;;11.75;11.75;;;;;16.08;100.00;101742.97;5055918;28;45491;-80
2022/04/14 02:45:38;;;;;;;;;14.25;12.50;;;;;16.04;100.00;101734.13;5037383;28;47761;-80
2022/04/14 02:48:03;;;;;;;;;13.75;12.25;;;;;16.07;100.00;101743.81;5054153;28;45728;-78
2022/04/14 02:50:29;;;;;;;;;12.75;12.75;;;;;16.05;100.00;101742.84;5055895;28;45283;-77
2022/04/14 02:52:55;;;;;;;;;21.50;16.50;;;;;16.03;100.00;101739.28;5038237;28;45237;-79
2022/04/14 02:55:21;;;;;;;;;20.00;18.25;;;;;16.05;100.00;101745.47;5056661;28;45266;-80
2022/04/14 02:57:48;;;;;;;;;20.00;17.00;;;;;16.05;100.00;101756.78;5055655;28;45192;-79
2022/04/14 03:00:15;;;;;;;;;14.50;13.25;;;;;15.98;100.00;101741.72;5055306;28;45327;-81
2022/04/14 03:02:41;;;;;;;;;17.75;17.25;;;;;15.97;100.00;101742.56;5055618;28;45483;-79
2022/04/14 03:05:08;;;;;;;;;15.50;15.50;;;;;15.98;100.00;101753.91;5055042;28;45455;-79
2022/04/14 03:07:33;;;;;;;;;16.50;16.50;;;;;15.95;100.00;101752.06;5055235;28;45293;-80
2022/04/14 03:10:00;;;;;;;;;21.50;19.50;;;;;15.90;100.00;101751.88;5055728;28;45281;-80
2022/04/14 03:12:25;;;;;;;;;24.00;21.50;;;;;15.89;100.00;101755.31;5055790;28;45447;-81
2022/04/14 03:14:51;;;;;;;;;22.50;22.00;;;;;15.79;100.00;101747.94;5054971;28;46144;-81
2022/04/14 03:17:18;;;;;;;;;27.25;25.00;;;;;15.77;100.00;101755.72;5054821;28;45466;-78
2022/04/14 03:19:43;;;;;;;;;26.25;25.25;;;;;15.72;100.00;101738.09;5055315;28;45473;-81
2022/04/14 03:22:09;;;;;;;;;26.50;24.75;;;;;15.77;100.00;101757.44;5056631;28;45300;-80
2022/04/14 03:24:35;;;;;;;;;22.25;19.00;;;;;15.75;100.00;101757.38;5058445;28;45799;-80
2022/04/14 03:27:00;;;;;;;;;25.75;25.50;;;;;15.74;100.00;101755.59;5040315;28;45506;-76
2022/04/14 03:29:32;;;;;;;;;27.00;24.00;;;;;15.73;100.00;101752.94;5058719;28;45255;-81
2022/04/14 03:31:58;;;;;;;;;27.50;25.50;;;;;15.74;100.00;101759.94;5059077;28;45320;-80
2022/04/14 03:34:24;;;;;;;;;26.75;22.50;;;;;15.75;100.00;101769.56;5058075;28;45900;-81
2022/04/14 03:36:49;;;;;;;;;24.75;22.00;;;;;15.69;100.00;101761.47;5058175;28;45396;-81
2022/04/14 03:39:15;;;;;;;;;21.00;21.00;;;;;15.70;100.00;101773.69;5058181;28;45317;-81
2022/04/14 03:41:41;;;;;;;;;23.75;22.25;;;;;15.65;100.00;101759.59;5058520;28;45346;-80
2022/04/14 03:44:07;;;;;;;;;24.00;23.75;;;;;15.67;100.00;101769.25;5057641;28;45391;-79
2022/04/14 03:46:32;;;;;;;;;21.50;20.75;;;;;15.66;100.00;101764.84;5057949;28;45438;-81
2022/04/14 03:48:58;;;;;;;;;27.25;25.00;;;;;15.70;100.00;101769.38;5058638;28;45376;-81
2022/04/14 03:51:25;;;;;;;;;27.25;22.50;;;;;15.67;100.00;101765.72;5058253;28;45606;-79
2022/04/14 03:53:51;;;;;;;;;23.00;20.50;;;;;15.63;100.00;101763.03;5058640;28;46026;-80
2022/04/14 03:56:17;;;;;;;;;23.50;22.50;;;;;15.65;100.00;101762.19;5059295;28;45319;-80
2022/04/14 03:58:42;;;;;;;;;30.00;25.25;;;;;15.67;100.00;101757.91;5042671;28;45289;-81
2022/04/14 04:01:08;;;;;;;;;28.25;24.75;;;;;15.68;100.00;101763.19;5059472;28;45700;-81
2022/04/14 04:03:33;;;;;;;;;28.00;23.25;;;;;15.68;100.00;101760.59;5039743;28;47915;-80
2022/04/14 04:05:59;;;;;;;;;29.00;25.25;;;;;15.61;100.00;101753.31;5058224;28;45309;-79
2022/04/14 04:08:25;;;;;;;;;25.50;23.75;;;;;15.65;100.00;101756.97;5056801;28;45410;-80
2022/04/14 04:10:51;;;;;;;;;30.75;24.25;;;;;15.58;100.00;101753.22;5041544;28;45473;-80
2022/04/14 04:13:16;;;;;;;;;30.50;25.75;;;;;15.57;100.00;101767.97;5057301;28;46142;-81
2022/04/14 04:15:42;;;;;;;;;29.50;27.25;;;;;15.54;100.00;101762.66;5057921;28;45323;-81
2022/04/14 04:18:07;;;;;;;;;32.25;27.25;;;;;15.54;100.00;101767.88;5057567;28;45279;-78
2022/04/14 04:20:33;;;;;;;;;22.25;21.00;;;;;15.52;100.00;101774.75;5056210;28;45473;-78
2022/04/14 04:23:02;;;;;;;;;27.25;24.50;;;;;15.45;100.00;101767.50;5057777;28;46370;-78
2022/04/14 04:25:28;;;;;;;;;24.25;23.25;;;;;15.42;100.00;101763.03;5057845;28;45887;-80
2022/04/14 04:27:53;;;;;;;;;24.50;24.50;;;;;15.45;100.00;101771.00;5057552;28;45173;-79
2022/04/14 04:30:19;;;;;;;;;31.75;25.00;;;;;15.40;100.00;101776.88;5057746;28;45490;-80
2022/04/14 04:32:44;;;;;;;;;28.50;25.00;;;;;15.31;100.00;101770.47;5056548;28;46021;-79
2022/04/14 04:35:10;;;;;;;;;27.50;25.75;;;;;15.32;100.00;101785.28;5056691;28;45273;-80
2022/04/14 04:37:35;;;;;;;;;25.75;23.50;;;;;15.32;100.00;101790.50;5057499;28;45317;-80
2022/04/14 04:40:01;;;;;;;;;31.00;24.75;;;;;15.23;100.00;101774.44;5057343;28;45232;-79
2022/04/14 04:42:27;;;;;;;;;27.50;24.50;;;;;15.27;100.00;101794.63;5039353;28;45433;-80
2022/04/14 04:44:53;;;;;;;;;20.00;20.00;;;;;15.22;100.00;101792.66;5057025;28;45393;-80
2022/04/14 04:47:20;;;;;;;;;22.50;21.25;;;;;15.19;100.00;101789.91;5056992;28;45324;-80
2022/04/14 04:49:47;;;;;;;;;21.25;21.25;;;;;15.15;100.00;101788.91;5057443;28;45182;-80
2022/04/14 04:52:13;;;;;;;;;22.00;21.00;;;;;15.16;100.00;101796.81;5056677;28;46167;-79
2022/04/14 04:54:39;;;;;;;;;19.00;18.75;;;;;15.08;100.00;101779.03;5057007;28;46070;-79
2022/04/14 04:57:05;;;;;;;;;18.75;17.25;;;;;15.12;100.00;101793.97;5056797;28;45292;-80
2022/04/14 04:59:31;;;;;;;;;24.25;21.25;;;;;15.07;100.00;101795.53;5057726;28;45469;-76
2022/04/14 05:01:56;;;;;;;;;18.25;18.00;;;;;14.99;100.00;101795.19;5058405;28;45363;-78
2022/04/14 05:04:22;;;;;;;;;24.25;22.00;;;;;14.90;100.00;101786.97;5059737;28;45485;-80
2022/04/14 05:06:47;;;;;;;;;23.50;22.25;;;;;14.84;100.00;101787.59;5059511;28;45365;-79
2022/04/14 05:09:13;;;;;;;;;20.00;20.00;;;;;14.84;100.00;101793.72;5057964;28;45464;-79
2022/04/14 05:11:38;;;;;;;;;23.00;22.50;;;;;14.85;100.00;101813.72;5056777;28;45422;-79
2022/04/14 05:14:04;;;;;;;;;19.25;19.25;;;;;14.81;100.00;101808.31;5038521;28;45312;-79
2022/04/14 05:16:30;;;;;;;;;21.50;21.50;;;;;14.76;100.00;101783.78;5057133;28;45269;-78
2022/04/14 05:18:55;;;;;;;;;20.75;20.25;;;;;14.75;100.00;101795.03;5057245;28;45205;-79
2022/04/14 05:21:21;;;;;;;;;23.50;20.75;;;;;14.80;100.00;101793.50;5056177;28;45233;-80
2022/04/14 05:23:47;;;;;;;;;19.50;18.00;;;;;14.82;100.00;101805.81;5038495;28;45256;-79
2022/04/14 05:26:12;;;;;;;;;23.50;21.75;;;;;14.88;100.00;101814.69;5056751;28;45337;-79
2022/04/14 05:28:38;;;;;;;;;23.50;20.75;;;;;14.79;100.00;101805.66;5056739;28;45217;-79
2022/04/14 05:31:04;;;;;;;;;25.75;23.25;;;;;14.89;100.00;101817.38;5057332;28;45637;-80
2022/04/14 05:33:30;;;;;;;;;27.75;25.50;;;;;14.80;100.00;101807.44;5039413;28;45329;-80
2022/04/14 05:35:55;;;;;;;;;25.75;24.75;;;;;14.86;100.00;101819.84;5056600;28;45350;-80
2022/04/14 05:38:21;;;;;;;;;21.50;20.00;;;;;14.87;100.00;101819.03;5056544;28;45264;-79
2022/04/14 05:40:47;;;;;;;;;21.00;19.00;;;;;14.86;100.00;101818.13;5055827;28;45681;-79
2022/04/14 05:43:17;;;;;;;;;20.75;17.25;;;;;14.86;100.00;101814.63;5055773;28;45419;-79
2022/04/14 05:45:44;;;;;;;;;20.00;18.25;;;;;14.84;100.00;101811.97;5055787;28;45214;-79
2022/04/14 05:48:13;;;;;;;;;20.75;20.00;;;;;14.93;100.00;101824.50;5056085;28;45335;-79
2022/04/14 05:50:42;;;;;;;;;25.25;22.50;;;;;14.96;100.00;101834.16;5037833;28;46746;-75
2022/04/14 05:53:08;;;;;;;;;24.00;21.50;;;;;14.93;100.00;101824.50;5055514;28;45257;-77
2022/04/14 05:55:33;;;;;;;;;20.50;20.50;;;;;14.93;100.00;101823.63;5055826;28;45466;-78
2022/04/14 05:57:59;;;;;;;;;22.50;21.00;;;;;14.89;100.00;101813.88;5056615;28;45421;-80
2022/04/14 06:00:25;;;;;;;;;22.50;20.50;;;;;14.91;100.00;101826.16;5055659;28;45418;-75
2022/04/14 06:02:50;;;;;;;;;25.50;22.25;;;;;14.80;100.00;101817.88;5056023;28;45257;-78
2022/04/14 06:05:16;;;;;;;;;21.00;19.50;;;;;14.89;100.00;101848.69;5055739;28;45366;-79
2022/04/14 06:07:41;;;;;;;;;29.50;26.75;;;;;14.89;100.00;101847.78;5056115;28;45507;-79
2022/04/14 06:10:07;;;;;;;;;32.75;28.00;;;;;14.92;100.00;101855.72;5055447;28;45622;-78
2022/04/14 06:12:33;;;;;;;;;28.00;28.00;;;;;14.86;100.00;101849.41;5037486;28;46033;-79
2022/04/14 06:14:58;;;;;;;;;32.50;30.00;;;;;14.89;100.00;101853.91;5071972;28;45413;-78
2022/04/14 06:17:24;;;;;;;;;29.25;28.00;;;;;14.65;100.00;101825.88;5055552;28;45510;-79
2022/04/14 06:19:50;;;;;;;;;36.50;32.00;;;;;14.88;100.00;101867.75;5055235;28;45408;-80
2022/04/14 06:22:15;;;;;;;;;34.25;31.75;;;;;14.83;100.00;101862.34;5055213;28;45268;-79
2022/04/14 06:24:41;;;;;;;;;29.00;29.00;;;;;14.84;100.00;101865.81;5036978;28;45285;-78
2022/04/14 06:27:07;;;;;;;;;27.75;27.00;;;;;14.84;100.00;101865.81;5055389;28;45190;-78
2022/04/14 06:29:33;;;;;;;;;36.00;32.00;;;;;14.87;100.00;101871.19;5055362;28;46610;-76
2022/04/14 06:31:58;;;;;;;;;28.75;28.25;;;;;14.90;100.00;101873.91;5037811;28;45395;-78
2022/04/14 06:34:24;;;;;;;;;39.25;33.00;;;;;14.97;100.00;101875.06;5037232;28;45380;-78
2022/04/14 06:36:49;;;;;;;;;31.25;29.25;;;;;15.01;100.00;101874.38;5055704;28;45472;-78
2022/04/14 06:39:15;;;;;;;;;36.50;32.50;;;;;14.99;100.00;101868.22;5055044;28;46031;-76
2022/04/14 06:41:41;;;;;;;;;37.00;33.75;;;;;15.07;100.00;101881.59;5055075;28;45483;-77
2022/04/14 06:44:07;;;;;;;;;33.50;29.50;;;;;14.98;100.00;101875.16;5036935;28;45486;-78
2022/04/14 06:46:33;;;;;;;;;35.00;28.75;;;;;14.97;100.00;101875.06;5055329;28;45451;-75
2022/04/14 06:48:59;;;;;;;;;38.75;32.75;;;;;14.97;100.00;101885.50;5055306;28;46459;-78
2022/04/14 06:51:24;;;;;;;;;29.00;26.25;;;;;14.96;100.00;101886.31;5054731;28;45320;-76
2022/04/14 06:53:50;;;;;;;;;28.75;28.75;;;;;14.94;100.00;101888.88;5055425;28;45245;-77
2022/04/14 06:56:16;;;;;;;;;30.00;28.25;;;;;14.95;100.00;101877.63;5037344;28;45311;-78
2022/04/14 06:58:42;;;;;;;;;29.75;29.50;;;;;15.01;100.00;101874.38;5058214;28;45221;-76
2022/04/14 07:01:08;;;;;;;;;35.25;30.00;;;;;15.07;100.00;101878.97;5058118;28;45368;-79
2022/04/14 07:03:34;;;;;;;;;33.50;29.50;;;;;15.09;100.00;101873.00;5058720;28;45368;-77
2022/04/14 07:06:00;;;;;;;;;27.75;27.75;;;;;15.11;100.00;101873.09;5040911;28;45436;-78
2022/04/14 07:08:29;;;;;;;;;34.00;30.25;;;;;15.15;100.00;101877.59;5040286;28;45736;-76
2022/04/14 07:10:57;;;;;;;;;34.75;29.50;;;;;15.14;100.00;101881.00;5040148;28;45789;-76
2022/04/14 07:13:23;;;;;;;;;35.00;30.00;;;;;15.06;100.00;101864.16;5040069;28;45197;-80
2022/04/14 07:15:48;;;;;;;;;35.50;29.00;;;;;15.12;100.00;101888.78;5058431;28;45586;-77
2022/04/14 07:18:14;;;;;;;;;34.75;31.75;;;;;15.11;100.00;101886.13;5057940;28;45688;-78
2022/04/14 07:20:39;;;;;;;;;39.75;32.25;;;;;15.07;100.00;101872.03;5058041;28;45335;-77
2022/04/14 07:23:06;;;;;;;;;32.50;30.25;;;;;15.15;100.00;101880.19;5039838;28;45320;-77
2022/04/14 07:25:33;;;;;;;;;38.50;33.50;;;;;15.10;100.00;101877.38;5058534;28;45336;-77
2022/04/14 07:28:00;;;;;;;;;32.25;30.75;;;;;15.19;100.00;101887.34;5040197;28;46419;-78
2022/04/14 07:30:26;;;;;;;;;38.25;32.00;;;;;15.23;100.00;101893.56;5058317;28;45357;-79
2022/04/14 07:32:53;;;;;;;;;39.25;34.25;;;;;15.26;100.00;101888.50;5058080;28;45343;-78
2022/04/14 07:35:25;;;;;;;;;37.25;32.00;;;;;15.33;100.00;101904.47;5039845;28;45364;-80
2022/04/14 07:37:52;;;;;;;;;36.25;32.00;;;;;15.32;100.00;101897.47;5058055;28;46367;-79
2022/04/14 07:40:20;;;;;;;;;40.75;35.75;;;;;15.41;100.00;101899.56;5057916;28;46041;-79
2022/04/14 07:42:47;;;;;;;;;34.75;31.50;;;;;15.46;100.00;101900.66;5057985;28;45395;-78
2022/04/14 07:45:15;;;;;;;;;37.00;32.25;;;;;15.49;100.00;101899.91;5057750;28;45524;-76
2022/04/14 07:47:42;;;;;;;;;43.50;35.75;;;;;15.49;100.00;101899.91;5057542;28;46186;-79
2022/04/14 07:50:16;;;;;;;;;47.75;36.75;;;;;15.52;100.00;101896.53;5038839;28;45246;-79
2022/04/14 07:52:54;;;;;;;;;43.50;34.75;;;;;15.57;100.00;101892.41;5057636;28;45226;-79
2022/04/14 07:55:24;;;;;;;;;34.25;31.50;;;;;15.61;100.00;101897.81;5058075;28;45272;-76
2022/04/14 07:57:52;;;;;;;;;38.00;34.50;;;;;15.62;100.00;101901.28;5040231;28;47585;-77
2022/04/14 08:00:18;;;;;;;;;37.50;34.00;;;;;15.63;100.00;101893.56;5057528;28;45807;-80
2022/04/14 08:02:56;;;;;;;;;36.25;32.50;;;;;15.68;100.00;101903.28;5057613;28;45408;-76
2022/04/14 08:05:38;;;;;;;;;37.25;32.50;;;;;15.69;100.00;101892.00;5057707;28;45538;-78
2022/04/14 08:08:06;;;;;;;;;45.75;36.50;;;;;15.74;100.00;101895.72;5056533;28;46282;-78
2022/04/14 08:10:33;;;;;;;;;41.75;35.50;;;;;15.83;100.00;101897.78;5057237;28;45485;-77
2022/04/14 08:12:59;;;;;;;;;41.50;33.00;;;;;15.86;100.00;101901.47;5057634;28;45372;-79
2022/04/14 08:15:25;;;;;;;;;49.00;40.00;;;;;15.92;100.00;101900.84;5057248;28;45638;-76
2022/04/14 08:17:51;;;;;;;;;46.00;35.75;;;;;15.98;100.00;101908.03;5057180;28;45317;-77
2022/04/14 08:20:17;;;;;;;;;46.75;38.00;;;;;15.95;100.00;101890.47;5056625;28;45244;-80
2022/04/14 08:22:49;;;;;;;;;41.25;33.75;;;;;16.05;100.00;101894.38;5057179;28;45451;-78
2022/04/14 08:25:18;;;;;;;;;32.75;29.50;;;;;16.12;100.00;101904.22;5056935;28;45493;-76
2022/04/14 08:27:44;;;;;;;;;31.50;30.25;;;;;16.17;100.00;101905.31;5056760;28;46635;-81
2022/04/14 08:30:10;;;;;;;;;28.75;28.00;;;;;16.23;100.00;101908.16;5056766;28;45490;-80
2022/04/14 08:32:36;;;;;;;;;28.00;27.75;;;;;16.27;100.00;101911.75;5056987;28;45272;-76
2022/04/14 08:35:05;;;;;;;;;31.00;28.50;;;;;16.30;100.00;101900.56;5057002;28;45578;-78
2022/04/14 08:37:31;;;;;;;;;30.00;27.75;;;;;16.36;100.00;101913.84;5056490;28;45251;-76
2022/04/14 08:39:57;;;;;;;;;26.50;24.50;;;;;16.28;100.00;101890.03;5056626;28;45427;-75
2022/04/14 08:42:34;;;;;;;;;21.50;20.50;;;;;16.41;100.00;101912.31;5056735;28;45281;-75
2022/04/14 08:45:05;;;;;;;;;23.50;21.50;;;;;16.47;100.00;101920.38;5057379;28;45315;-80
2022/04/14 08:47:34;;;;;;;;;20.75;19.25;;;;;16.47;100.00;101911.63;5038200;28;47165;-79
2022/04/14 08:50:00;;;;;;;;;25.25;25.25;;;;;16.51;100.00;101914.47;5039070;28;45463;-81
2022/04/14 08:52:26;;;;;;;;;29.75;27.25;;;;;16.55;100.00;101918.06;5056396;28;45264;-81
2022/04/14 08:54:56;;;;;;;;;31.75;27.75;;;;;16.59;100.00;101921.69;5056406;28;45482;-81
2022/04/14 08:57:23;;;;;;;;;28.00;27.50;;;;;16.58;100.00;101906.84;5056149;28;45391;-82
2022/04/14 08:59:50;;;;;;;;;26.75;24.50;;;;;16.58;100.00;101907.72;5056089;28;45787;-81
2022/04/14 09:02:23;;;;;;;;;36.50;32.75;;;;;16.66;100.00;101921.97;5055591;28;45437;-80
2022/04/14 09:04:49;;;;;;;;;30.25;28.00;;;;;16.69;100.00;101918.59;5037914;28;45502;-79
2022/04/14 09:07:15;;;;;;;;;27.25;25.75;;;;;16.67;100.00;101912.41;5055485;28;45315;-78
2022/04/14 09:09:42;;;;;;;;;32.25;27.50;;;;;16.75;100.00;101921.41;5056010;28;45971;-78
2022/04/14 09:12:10;;;;;;;;;28.25;25.00;;;;;16.74;100.00;101919.63;5054266;28;45379;-80
2022/04/14 09:14:37;;;;;;;;;28.50;27.25;;;;;16.79;100.00;101914.59;5056407;28;45218;-77
2022/04/14 09:17:09;;;;;;;;;31.75;28.50;;;;;16.82;100.00;101917.31;5037298;28;46489;-76
2022/04/14 09:19:37;;;;;;;;;29.50;25.50;;;;;16.87;100.00;101918.38;5055104;28;45898;-78
2022/04/14 09:22:07;;;;;;;;;28.75;27.50;;;;;16.86;100.00;101909.63;5055653;28;45228;-78
2022/04/14 09:24:49;;;;;;;;;29.50;25.25;;;;;16.92;100.00;101916.81;5055753;28;45381;-80
2022/04/14 09:27:32;;;;;;;;;29.00;24.25;;;;;16.96;100.00;101917.84;5055187;28;46173;-78
2022/04/14 09:30:03;;;;;;;;;22.25;20.75;;;;;16.97;100.00;101915.31;5056307;28;45377;-83
2022/04/14 09:32:38;;;;;;;;;20.00;20.00;;;;;16.98;100.00;101909.22;5057891;28;45344;-78
2022/04/14 09:35:06;;;;;;;;;20.50;18.50;;;;;17.02;100.00;101912.84;5057816;28;45438;-79
2022/04/14 09:37:33;;;;;;;;;25.00;22.50;;;;;17.01;100.00;101909.31;5055881;28;46268;-79
2022/04/14 09:40:09;;;;;;;;;21.00;19.75;;;;;17.06;100.00;101906.00;5055717;28;45984;-81
2022/04/14 09:42:37;;;;;;;;;24.00;19.25;;;;;17.05;100.00;101896.34;5055657;28;45510;-78
2022/04/14 09:45:23;;;;;;;;;24.00;19.75;;;;;17.08;100.00;101896.47;5055707;28;45566;-79
2022/04/14 09:47:50;;;;;;;;;21.25;20.00;;;;;17.07;100.00;101892.06;5055956;28;45407;-80
2022/04/14 09:50:29;;;;;;;;;17.75;17.00;;;;;17.12;100.00;101904.50;5036840;28;45784;-80
2022/04/14 09:53:12;;;;;;;;;16.50;14.75;;;;;17.14;100.00;101900.22;5055179;28;45435;-79
2022/04/14 09:55:54;;;;;;;;;22.50;17.50;;;;;17.16;100.00;101909.00;5055590;28;45338;-78
2022/04/14 09:58:24;;;;;;;;;21.75;18.75;;;;;17.22;100.00;101908.34;5054699;28;45433;-79
2022/04/14 10:00:58;;;;;;;;;20.00;17.50;;;;;17.26;100.00;101909.31;5055148;28;45446;-76
2022/04/14 10:03:29;;;;;;;;;20.75;18.75;;;;;17.29;100.00;101915.56;5054790;28;45232;-76
2022/04/14 10:05:58;;;;;;;;;24.75;18.50;;;;;17.32;100.00;101915.66;5055351;28;45272;-77
2022/04/14 10:08:25;;;;;;;;;21.75;19.50;;;;;17.38;100.00;101908.84;5054337;28;45963;-82
2022/04/14 10:11:07;;;;;;;;;18.75;17.50;;;;;17.37;100.00;101897.50;5054963;28;45418;-81
2022/04/14 10:13:35;;;;;;;;;16.25;16.00;;;;;17.43;100.00;101897.69;5054875;28;45187;-79
2022/04/14 10:16:00;;;;;;;;;18.75;13.50;;;;;17.38;100.00;101885.28;5055182;28;45502;-78
2022/04/14 10:18:26;;;;;;;;;13.75;11.75;;;;;17.52;100.00;101894.50;5054923;28;45568;-79
2022/04/14 10:20:52;;;;;;;;;15.00;13.25;;;;;17.56;100.00;101895.50;5055307;28;45383;-80
2022/04/14 10:23:18;;;;;;;;;14.75;13.50;;;;;17.58;100.00;101896.44;5054853;28;45289;-81
2022/04/14 10:25:43;;;;;;;;;13.50;13.50;;;;;17.62;100.00;101891.34;5055317;28;45649;-81
2022/04/14 10:28:14;;;;;;;;;13.00;13.00;;;;;17.63;100.00;101887.91;5054643;28;45351;-78
2022/04/14 10:30:47;;;;;;;;;12.75;12.25;;;;;17.68;100.00;101884.53;5053264;28;45727;-80
2022/04/14 10:33:13;;;;;;;;;20.00;16.25;;;;;17.71;100.00;101893.38;5058034;28;45327;-80
2022/04/14 10:35:39;;;;;;;;;14.25;14.25;;;;;17.72;100.00;101891.66;5058712;28;45497;-80
2022/04/14 10:38:29;;;;;;;;;17.00;12.00;;;;;17.85;100.00;101900.78;5039803;28;45461;-80
2022/04/14 10:41:03;;;;;;;;;17.75;15.25;;;;;17.87;100.00;101875.53;5058168;28;45363;-80
2022/04/14 10:43:32;;;;;;;;;11.50;10.25;;;;;17.93;100.00;101879.25;5040073;28;45290;-77
2022/04/14 10:45:59;;;;;;;;;14.75;13.75;;;;;17.97;100.00;101879.38;5040555;28;45337;-82
2022/04/14 10:48:36;;;;;;;;;13.50;12.50;;;;;18.02;100.00;101880.41;5057967;28;46712;-79
2022/04/14 10:51:27;;;;;;;;;13.00;13.00;;;;;18.08;100.00;101880.59;5058542;28;45302;-80
2022/04/14 10:54:05;;;;;;;;;12.25;11.50;;;;;18.15;100.00;101884.28;5059005;28;45273;-79
2022/04/14 10:56:33;;;;;;;;;12.00;9.75;;;;;18.20;100.00;101883.56;5059271;28;45442;-77
2022/04/14 10:59:03;;;;;;;;;12.50;11.50;;;;;18.30;97.58;101883.88;5058522;28;45427;-80
2022/04/14 11:04:31;;;;;;;;;10.00;9.50;;;;;18.37;93.06;101889.34;5058235;28;45392;-81